Share

بلغراد, جمهورية صربيا

ISRBIJAB2 Elev 355 ft | 44.81 °N, 20.53 °E | Change Station

Current weather conditions updated 3 minutes ago

Clear
صافية
54.3 °F
Feels Like 54.3 °F
N
7.0
ريح متغير ريح from SSE
Gusts 7.0 mph
شروق الشمس 5:45 AM
غروب الشمس 7:29 PM
قمر الأحدب الأخير

Tomorrow is forecast to be Warmer than today. زخات مطر. tomorrow night.

الضغط 29.86 في
وضوح الرؤية -9999.0 أميال
سحابات
نقطة الندى 50 °F
الرطوبة 85%
Rainfall 0.14 في
عمق الثلج Not available.
الأشعة فوق البنفسجية Not available.
Pollen Not available.
جودة الهواء Not available.
Flu Activity Not available.
METAR LYBE 202030Z 11008KT CAVOK 13/11 Q1011 NOSIG

More Conditions Fewer Conditions

الضغط 29.86 في
وضوح الرؤية -9999.0 أميال
سحابات
نقطة الندى 50 °F
الرطوبة 85%
Rainfall 0.14 في
عمق الثلج Not available.
الأشعة فوق البنفسجية Not available.
Pollen Not available.
جودة الهواء Not available.
Flu Activity Not available.
METAR LYBE 202030Z 11008KT CAVOK 13/11 Q1011 NOSIG

More Conditions Fewer Conditions

10-Day Weather Forecast

Almanac

علم الفلك

Apr. 20, 2014 Rise Set
Actual Time 5:45 AM CEST 7:29 PM CEST
Civil Twilight 5:14 AM CEST 8:00 PM CEST
Nautical Twilight 4:37 AM CEST 8:38 PM CEST
Astronomical Twilight 3:56 AM CEST 9:19 PM CEST
قمر لايوجد طلوع للقمر 9:41 AM CEST
Length Of Visible Light 14h 45m
طول الیوم
13h 43m
Tomorrow will be 2m 55s longer.
الأحدب الأخير, 66% of the Moon is Illuminated
هذا اليوم
الأحدب الأخير
Apr 22
الربع الآخر
Apr 29
New
May 6
الربع الاول
May 14
بدر

Community

  • Morning Sun
    Morning Sun
  • after rain
    after rain
  • Columbine
    Columbine
  • Easter Sunrise
    Easter Sunrise
  • Easter Eve - The Promise - Lake Palestine, TX
    Easter Eve - The Promise - Lake Palestine, TX

WunderPhotos

Upload Photos

1,703,351 photos uploaded!

WunderBlogs® & News

Nearby

جودة الهواء

Not available.

عمق الثلج

Not available.

Coastal Water Temperatures

مكان درجات الحرارة
No Stations Reporting

Earthquake Activity

City Distance Mag. Time & Date
No recent earthquake activity has been reported nearby.
Minimum magnitude displayed is 2.5.

Nearby Weather Stations

Station Location الحرارة نقطة الندى الرطوبة ريح Precip. Elev تحديث Type
Beograd-Karaburma 54.3 °F 50 °F 85% SSE  عند  7.0 mph 0.00 في / hr 355 ft 10:56 PM CEST Normal
Misa, Pancevo 55.2 °F 54 °F 94% جنوب شرقی  عند  3.1 mph 0.19 في / hr 253 ft 10:59 PM CEST Rapid Fire
Zaklopaca, Grocka 53.2 °F 51 °F 91% ESE  عند  0.0 mph 0.00 في / hr 577 ft 10:30 PM CEST Normal
Duboko vinogradi, Bari%u010D 57.7 °F 52 °F 80% SSE  عند  0.0 mph 0.00 في / hr 522 ft 10:55 PM CEST Normal
Babe, vikend naselje, Sopot 53.2 °F 51 °F 92% شمال  عند  - - / hr 1079 ft 10:47 PM CEST Normal

Show More Stations Show Fewer Stations

What do you think?

We're not finished. Please let us know what you like, what you don't like, and what you are still missing.